createdAt,value
2023-01-20T00:01:15.481Z,98787.94
2023-01-20T00:03:44.556Z,98791.47
2023-01-20T00:06:13.310Z,98786.69
2023-01-20T00:08:42.797Z,98799.69
2023-01-20T00:11:11.991Z,98794.56
2023-01-20T00:13:40.628Z,98791.34
2023-01-20T00:16:09.666Z,98797.88
2023-01-20T00:18:38.096Z,98801.84
2023-01-20T00:21:06.612Z,98796.59
2023-01-20T00:23:34.656Z,98796.72
2023-01-20T00:26:07.197Z,98791.34
2023-01-20T00:28:35.537Z,98801.84
2023-01-20T00:31:14.016Z,98781.44
2023-01-20T00:33:42.740Z,98796.16
2023-01-20T00:36:11.504Z,98791.47
2023-01-20T00:38:39.950Z,98789.75
2023-01-20T00:41:25.707Z,98785.22
2023-01-20T00:43:53.780Z,98783.38
2023-01-20T00:46:23.067Z,98798.22
2023-01-20T00:48:51.106Z,98793.28
2023-01-20T00:51:19.193Z,98793.97
2023-01-20T00:53:47.082Z,98796.50
2023-01-20T00:56:15.164Z,98791.13
2023-01-20T00:58:45.608Z,98800.59
2023-01-20T01:01:13.687Z,98798.22
2023-01-20T01:03:41.832Z,98809.72
2023-01-20T01:06:10.845Z,98791.94
2023-01-20T01:08:38.711Z,98793.53
2023-01-20T01:11:07.357Z,98795.91
2023-01-20T01:13:35.743Z,98792.25
2023-01-20T01:16:05.426Z,98784.97
2023-01-20T01:18:33.405Z,98779.72
2023-01-20T01:21:01.429Z,98786.91
2023-01-20T01:23:29.426Z,98796.16
2023-01-20T01:25:57.557Z,98801.16
2023-01-20T01:28:25.502Z,98793.97
2023-01-20T01:30:53.564Z,98806.88
2023-01-20T01:33:23.015Z,98784.06
2023-01-20T01:35:57.630Z,98797.63
2023-01-20T01:38:25.984Z,98791.13
2023-01-20T01:40:54.779Z,98787.25
2023-01-20T01:43:25.033Z,98798.09
2023-01-20T01:45:53.063Z,98789.88
2023-01-20T01:48:24.382Z,98800.84
2023-01-20T01:50:54.622Z,98797.84
2023-01-20T01:53:22.667Z,98797.06
2023-01-20T01:55:52.476Z,98798.41
2023-01-20T02:01:18.374Z,98797.72
2023-01-20T02:03:51.254Z,98800.47
2023-01-20T02:06:19.740Z,98781.06
2023-01-20T02:08:48.837Z,98790.28
2023-01-20T02:11:16.746Z,98782.22
2023-01-20T02:13:45.158Z,98773.06
2023-01-20T02:16:16.669Z,98779.00
2023-01-20T02:18:52.113Z,98790.41
2023-01-20T02:21:36.297Z,98787.59
2023-01-20T02:24:30.903Z,98794.66
2023-01-20T02:27:04.951Z,98801.28
2023-01-20T02:29:54.470Z,98793.28
2023-01-20T02:32:27.909Z,98797.06
2023-01-20T02:34:59.276Z,98787.78
2023-01-20T02:37:29.480Z,98812.56
2023-01-20T02:40:02.173Z,98784.16
2023-01-20T02:42:38.115Z,98789.88
2023-01-20T02:45:09.288Z,98786.56
2023-01-20T02:47:40.986Z,98798.28
2023-01-20T02:50:11.697Z,98806.09
2023-01-20T02:52:41.156Z,98816.34
2023-01-20T02:55:11.053Z,98807.09
2023-01-20T02:57:42.302Z,98803.66
2023-01-20T03:00:14.156Z,98822.84
2023-01-20T03:02:45.597Z,98816.00
2023-01-20T03:05:15.878Z,98814.16
2023-01-20T03:07:45.857Z,98823.50
2023-01-20T03:10:16.054Z,98818.97
2023-01-20T03:12:47.363Z,98829.34
2023-01-20T03:15:16.328Z,98823.31
2023-01-20T03:17:46.209Z,98831.38
2023-01-20T03:20:14.470Z,98833.34
2023-01-20T03:22:42.831Z,98832.09
2023-01-20T03:25:12.223Z,98830.38
2023-01-20T03:27:40.668Z,98849.88
2023-01-20T03:30:13.308Z,98845.53
2023-01-20T03:32:42.093Z,98838.81
2023-01-20T03:35:12.085Z,98850.69
2023-01-20T03:37:40.230Z,98855.03
2023-01-20T03:40:09.135Z,98848.16
2023-01-20T03:42:40.939Z,98858.53
2023-01-20T03:45:12.287Z,98857.28
2023-01-20T03:47:46.247Z,98854.13
2023-01-20T03:50:19.661Z,98857.53
2023-01-20T03:52:50.407Z,98865.28
2023-01-20T03:55:22.812Z,98860.97
2023-01-20T03:57:54.540Z,98854.19
2023-01-20T04:00:24.275Z,98861.06
2023-01-20T04:02:53.867Z,98858.88
2023-01-20T04:05:23.448Z,98867.91
2023-01-20T04:07:53.256Z,98861.28
2023-01-20T04:10:21.732Z,98856.50
2023-01-20T04:12:50.233Z,98860.72
2023-01-20T04:15:19.203Z,98855.72
2023-01-20T04:17:47.245Z,98861.50
2023-01-20T04:20:16.778Z,98863.69
2023-01-20T04:22:49.359Z,98862.44
2023-01-20T04:25:22.063Z,98855.34
2023-01-20T04:27:50.091Z,98864.81
2023-01-20T04:30:18.455Z,98861.97
2023-01-20T04:32:46.461Z,98870.19
2023-01-20T04:35:15.524Z,98867.69
2023-01-20T04:40:26.154Z,98869.03
2023-01-20T04:42:54.283Z,98872.69
2023-01-20T04:45:22.447Z,98881.84
2023-01-20T04:47:50.903Z,98887.44
2023-01-20T04:50:18.800Z,98884.09
2023-01-20T04:52:46.798Z,98887.66
2023-01-20T04:55:15.248Z,98878.28
2023-01-20T04:57:44.719Z,98893.94
2023-01-20T05:00:18.707Z,98877.13
2023-01-20T05:02:46.883Z,98887.66
2023-01-20T05:05:15.267Z,98889.59
2023-01-20T05:07:43.614Z,98892.44
2023-01-20T05:10:13.259Z,98893.72
2023-01-20T05:12:41.831Z,98896.88
2023-01-20T05:15:11.955Z,98896.41
2023-01-20T05:17:40.593Z,98897.81
2023-01-20T05:20:09.236Z,98897.91
2023-01-20T05:22:37.252Z,98894.38
2023-01-20T05:25:05.998Z,98888.41
2023-01-20T05:27:36.043Z,98900.53
2023-01-20T05:30:04.227Z,98899.94
2023-01-20T05:32:33.959Z,98913.66
2023-01-20T05:37:41.713Z,98906.72
2023-01-20T05:40:10.738Z,98895.72
2023-01-20T05:42:38.879Z,98906.34
2023-01-20T05:45:07.514Z,98911.59
2023-01-20T05:47:36.950Z,98912.50
2023-01-20T05:50:05.040Z,98905.31
2023-01-20T05:52:33.095Z,98909.41
2023-01-20T05:55:01.634Z,98915.47
2023-01-20T05:57:30.965Z,98914.44
2023-01-20T05:59:59.146Z,98916.28
2023-01-20T06:02:27.122Z,98924.16
2023-01-20T06:04:56.830Z,98918.31
2023-01-20T06:07:25.550Z,98911.03
2023-01-20T06:09:53.695Z,98924.63
2023-01-20T06:12:25.206Z,98926.31
2023-01-20T06:14:53.378Z,98933.72
2023-01-20T06:17:21.594Z,98929.75
2023-01-20T06:19:49.689Z,98941.03
2023-01-20T06:22:21.250Z,98927.22
2023-01-20T06:24:49.428Z,98927.41
2023-01-20T06:27:17.753Z,98936.72
2023-01-20T06:29:45.979Z,98942.88
2023-01-20T06:32:14.029Z,98947.88
2023-01-20T06:34:42.336Z,98948.44
2023-01-20T06:37:10.554Z,98951.41
2023-01-20T06:39:40.575Z,98960.69
2023-01-20T06:42:08.723Z,98956.31
2023-01-20T06:44:36.878Z,98961.91
2023-01-20T06:47:05.098Z,98968.75
2023-01-20T06:49:33.723Z,98974.03
2023-01-20T06:52:02.052Z,98982.94
2023-01-20T06:54:29.991Z,98985.25
2023-01-20T06:56:59.605Z,99005.81
2023-01-20T06:59:27.717Z,99012.75
2023-01-20T07:01:56.082Z,99014.69
2023-01-20T07:04:24.221Z,99029.69
2023-01-20T07:06:52.356Z,99015.63
2023-01-20T07:09:20.505Z,99021.91
2023-01-20T07:11:48.567Z,99009.81
2023-01-20T07:14:18.306Z,99010.25
2023-01-20T07:16:47.386Z,99013.13
2023-01-20T07:19:15.840Z,99019.75
2023-01-20T07:21:44.148Z,99020.88
2023-01-20T07:24:12.268Z,99015.63
2023-01-20T07:26:40.372Z,99020.31
2023-01-20T07:29:08.541Z,99018.72
2023-01-20T07:31:38.876Z,99024.75
2023-01-20T07:34:07.502Z,99027.63
2023-01-20T07:36:35.670Z,99031.63
2023-01-20T07:39:03.775Z,99036.75
2023-01-20T07:41:32.221Z,99033.09
2023-01-20T07:44:00.662Z,99025.69
2023-01-20T07:46:28.667Z,99027.97
2023-01-20T07:48:58.384Z,99023.66
2023-01-20T07:51:26.402Z,99017.44
2023-01-20T07:53:54.539Z,99023.59
2023-01-20T07:56:23.736Z,99023.47
2023-01-20T07:58:51.884Z,99017.69
2023-01-20T08:01:21.421Z,99012.06
2023-01-20T08:03:49.475Z,99005.44
2023-01-20T08:06:19.658Z,99012.63
2023-01-20T08:08:47.857Z,99007.69
2023-01-20T08:11:17.118Z,99018.66
2023-01-20T08:13:45.413Z,99021.41
2023-01-20T08:16:15.032Z,99029.16
2023-01-20T08:18:43.681Z,99032.19
2023-01-20T08:21:19.215Z,99019.81
2023-01-20T08:23:47.398Z,99027.50
2023-01-20T08:26:15.982Z,99029.28
2023-01-20T08:28:44.070Z,99023.31
2023-01-20T08:31:13.137Z,99027.56
2023-01-20T08:33:42.747Z,99030.19
2023-01-20T08:36:12.142Z,99024.72
2023-01-20T08:38:41.735Z,99014.03
2023-01-20T08:41:10.443Z,99022.34
2023-01-20T08:43:38.712Z,99024.50
2023-01-20T08:46:07.978Z,99022.25
2023-01-20T08:49:03.129Z,99029.19
2023-01-20T08:51:32.937Z,99024.50
2023-01-20T08:54:02.874Z,99040.53
2023-01-20T08:56:31.376Z,99029.88
2023-01-20T09:01:58.611Z,99035.25
2023-01-20T09:04:26.789Z,99036.81
2023-01-20T09:06:54.794Z,99038.38
2023-01-20T09:09:24.596Z,99046.38
2023-01-20T09:11:52.550Z,99047.31
2023-01-20T09:14:21.037Z,99046.72
2023-01-20T09:16:49.361Z,99053.84
2023-01-20T09:19:17.550Z,99066.06
2023-01-20T09:21:45.821Z,99074.19
2023-01-20T09:24:13.772Z,99072.59
2023-01-20T09:26:43.101Z,99076.72
2023-01-20T09:29:12.443Z,99075.75
2023-01-20T09:31:44.578Z,99074.22
2023-01-20T09:34:15.399Z,99074.34
2023-01-20T09:36:43.444Z,99083.25
2023-01-20T09:39:29.855Z,99075.13
2023-01-20T09:42:19.969Z,99085.53
2023-01-20T09:44:50.145Z,99087.22
2023-01-20T09:47:29.681Z,99088.38
2023-01-20T09:50:32.099Z,99088.28
2023-01-20T09:53:05.393Z,99093.91
2023-01-20T09:55:40.156Z,99092.66
2023-01-20T09:58:13.107Z,99097.00
2023-01-20T10:00:42.476Z,99096.28
2023-01-20T10:03:14.847Z,99096.53
2023-01-20T10:05:46.457Z,99109.22
2023-01-20T10:08:21.619Z,99104.03
2023-01-20T10:10:53.161Z,99090.38
2023-01-20T10:13:25.656Z,99093.75
2023-01-20T10:15:55.690Z,99080.47
2023-01-20T10:21:14.917Z,99092.78
2023-01-20T10:23:44.211Z,99093.13
2023-01-20T10:26:14.599Z,99096.69
2023-01-20T10:28:47.038Z,99094.78
2023-01-20T10:31:19.310Z,99090.88
2023-01-20T10:33:47.614Z,99095.75
2023-01-20T10:36:17.923Z,99088.41
2023-01-20T10:38:54.041Z,99086.09
2023-01-20T10:41:25.585Z,99094.88
2023-01-20T10:43:55.304Z,99109.25
2023-01-20T10:46:34.486Z,99104.44
2023-01-20T10:49:13.759Z,99107.38
2023-01-20T10:51:46.266Z,99101.94
2023-01-20T10:54:19.021Z,99099.28
2023-01-20T10:56:53.872Z,99097.22
2023-01-20T10:59:28.245Z,99097.34
2023-01-20T11:02:10.940Z,99091.34
2023-01-20T11:04:40.027Z,99106.03
2023-01-20T11:07:14.511Z,99109.69
2023-01-20T11:09:42.832Z,99105.03
2023-01-20T11:12:14.315Z,99118.19
2023-01-20T11:14:44.303Z,99119.31
2023-01-20T11:17:15.719Z,99108.13
2023-01-20T11:19:51.148Z,99113.53
2023-01-20T11:22:23.708Z,99106.75
2023-01-20T11:24:55.188Z,99097.97
2023-01-20T11:27:25.139Z,99096.13
2023-01-20T11:29:58.047Z,99104.59
2023-01-20T11:32:27.650Z,99112.75
2023-01-20T11:34:56.222Z,99109.88
2023-01-20T11:37:27.000Z,99115.88
2023-01-20T11:40:00.767Z,99103.09
2023-01-20T11:42:29.549Z,99118.03
2023-01-20T11:45:15.375Z,99117.25
2023-01-20T11:48:00.639Z,99115.56
2023-01-20T11:50:31.284Z,99118.66
2023-01-20T11:53:13.413Z,99121.41
2023-01-20T11:55:46.891Z,99122.13
2023-01-20T11:58:18.594Z,99112.66
2023-01-20T12:00:48.900Z,99123.22
2023-01-20T12:03:34.132Z,99121.59
2023-01-20T12:06:05.173Z,99144.81
2023-01-20T12:08:36.473Z,99154.78
2023-01-20T12:11:09.722Z,99155.50
2023-01-20T12:13:54.607Z,99145.56
2023-01-20T12:16:25.743Z,99157.94
2023-01-20T12:19:02.314Z,99147.31
2023-01-20T12:21:35.734Z,99152.13
2023-01-20T12:24:06.485Z,99155.66
2023-01-20T12:26:36.371Z,99158.63
2023-01-20T12:29:14.990Z,99146.59
2023-01-20T12:31:49.092Z,99151.97
2023-01-20T12:34:17.881Z,99155.97
2023-01-20T12:37:06.835Z,99154.69
2023-01-20T12:39:49.590Z,99168.09
2023-01-20T12:42:44.719Z,99160.78
2023-01-20T12:45:17.077Z,99166.50
2023-01-20T12:47:51.726Z,99154.03
2023-01-20T12:50:25.720Z,99172.16
2023-01-20T12:53:03.826Z,99175.44
2023-01-20T12:55:38.944Z,99175.09
2023-01-20T12:58:11.167Z,99185.53
2023-01-20T13:00:45.467Z,99174.00
2023-01-20T13:03:31.477Z,99194.16
2023-01-20T13:06:11.462Z,99178.03
2023-01-20T13:08:43.584Z,99193.16
2023-01-20T13:11:16.718Z,99188.34
2023-01-20T13:13:57.359Z,99184.00
2023-01-20T13:16:32.612Z,99189.75
2023-01-20T13:19:04.961Z,99188.38
2023-01-20T13:21:35.037Z,99185.19
2023-01-20T13:24:04.364Z,99185.63
2023-01-20T13:26:32.970Z,99185.28
2023-01-20T13:29:01.120Z,99180.81
2023-01-20T13:31:34.907Z,99178.31
2023-01-20T13:34:21.621Z,99173.03
2023-01-20T13:37:04.494Z,99170.06
2023-01-20T13:39:41.865Z,99173.16
2023-01-20T13:42:24.716Z,99168.13
2023-01-20T13:45:11.652Z,99173.28
2023-01-20T13:48:03.610Z,99182.41
2023-01-20T13:50:33.105Z,99186.09
2023-01-20T13:53:19.057Z,99191.91
2023-01-20T13:55:55.191Z,99190.44
2023-01-20T13:58:24.817Z,99198.66
2023-01-20T14:00:53.512Z,99192.28
2023-01-20T14:03:26.240Z,99186.44
2023-01-20T14:05:55.054Z,99189.63
2023-01-20T14:08:23.574Z,99188.47
2023-01-20T14:10:51.749Z,99202.53
2023-01-20T14:13:22.765Z,99207.22
2023-01-20T14:15:52.143Z,99208.69
2023-01-20T14:18:21.910Z,99206.06
2023-01-20T14:21:03.319Z,99212.78
2023-01-20T14:23:33.263Z,99210.63
2023-01-20T14:26:02.771Z,99214.03
2023-01-20T14:28:32.846Z,99210.63
2023-01-20T14:31:13.502Z,99216.31
2023-01-20T14:33:45.958Z,99219.63
2023-01-20T14:36:16.269Z,99235.59
2023-01-20T14:38:56.595Z,99232.78
2023-01-20T14:41:26.273Z,99245.78
2023-01-20T14:43:56.063Z,99236.03
2023-01-20T14:46:24.522Z,99246.88
2023-01-20T14:48:53.316Z,99248.13
2023-01-20T14:51:21.771Z,99261.72
2023-01-20T14:54:09.875Z,99254.50
2023-01-20T14:56:37.888Z,99266.03
2023-01-20T14:59:19.579Z,99261.88
2023-01-20T15:01:52.085Z,99257.16
2023-01-20T15:04:20.346Z,99261.81
2023-01-20T15:06:52.850Z,99253.34
2023-01-20T15:09:28.008Z,99268.53
2023-01-20T15:12:11.255Z,99278.25
2023-01-20T15:14:41.438Z,99275.47
2023-01-20T15:17:09.906Z,99270.00
2023-01-20T15:19:37.990Z,99269.53
2023-01-20T15:22:17.834Z,99282.91
2023-01-20T15:24:47.422Z,99282.25
2023-01-20T15:27:33.610Z,99287.38
2023-01-20T15:30:05.546Z,99307.34
2023-01-20T15:32:33.573Z,99308.94
2023-01-20T15:35:01.597Z,99309.53
2023-01-20T15:37:30.754Z,99298.31
2023-01-20T15:39:59.660Z,99303.75
2023-01-20T15:42:27.595Z,99310.69
2023-01-20T15:44:55.600Z,99311.06
2023-01-20T15:47:31.074Z,99314.72
2023-01-20T15:49:59.460Z,99321.19
2023-01-20T15:52:27.540Z,99334.97
2023-01-20T15:54:55.774Z,99334.25
2023-01-20T15:57:23.800Z,99334.63
2023-01-20T15:59:52.323Z,99323.47
2023-01-20T16:02:21.285Z,99330.53
2023-01-20T16:04:51.101Z,99340.47
2023-01-20T16:07:19.948Z,99343.88
2023-01-20T16:09:48.748Z,99343.75
2023-01-20T16:12:17.592Z,99345.97
2023-01-20T16:14:46.016Z,99347.38
2023-01-20T16:17:15.387Z,99351.81
2023-01-20T16:19:43.316Z,99363.75
2023-01-20T16:22:13.679Z,99367.78
2023-01-20T16:24:42.496Z,99367.38
2023-01-20T16:27:15.728Z,99373.41
2023-01-20T16:29:43.770Z,99368.75
2023-01-20T16:32:12.148Z,99372.97
2023-01-20T16:34:40.284Z,99362.47
2023-01-20T16:37:08.307Z,99379.34
2023-01-20T16:39:37.853Z,99371.41
2023-01-20T16:42:05.981Z,99371.34
2023-01-20T16:44:33.890Z,99372.13
2023-01-20T16:47:02.072Z,99349.94
2023-01-20T16:49:30.193Z,99368.78
2023-01-20T16:51:58.198Z,99381.97
2023-01-20T16:54:26.353Z,99387.72
2023-01-20T16:56:55.625Z,99384.25
2023-01-20T16:59:23.991Z,99403.81
2023-01-20T17:01:52.500Z,99400.03
2023-01-20T17:04:20.841Z,99407.53
2023-01-20T17:06:49.100Z,99413.69
2023-01-20T17:09:17.049Z,99422.75
2023-01-20T17:11:45.012Z,99421.72
2023-01-20T17:14:15.720Z,99415.66
2023-01-20T17:16:43.803Z,99409.03
2023-01-20T17:19:13.296Z,99419.94
2023-01-20T17:21:41.515Z,99423.06
2023-01-20T17:24:11.583Z,99420.44
2023-01-20T17:26:39.849Z,99428.31
2023-01-20T17:29:08.751Z,99435.56
2023-01-20T17:31:40.529Z,99430.88
2023-01-20T17:34:10.386Z,99455.91
2023-01-20T17:36:39.151Z,99440.91
2023-01-20T17:39:07.633Z,99446.53
2023-01-20T17:41:35.885Z,99435.16
2023-01-20T17:44:04.278Z,99430.84
2023-01-20T17:46:32.624Z,99433.00
2023-01-20T17:49:04.805Z,99435.78
2023-01-20T17:51:33.973Z,99450.19
2023-01-20T17:54:05.144Z,99445.28
2023-01-20T17:56:33.319Z,99447.72
2023-01-20T17:59:01.412Z,99455.03
2023-01-20T18:01:30.559Z,99459.25
2023-01-20T18:03:59.475Z,99455.56
2023-01-20T18:06:30.831Z,99466.56
2023-01-20T18:09:00.722Z,99458.59
2023-01-20T18:11:29.964Z,99471.59
2023-01-20T18:13:58.820Z,99484.47
2023-01-20T18:16:28.849Z,99476.81
2023-01-20T18:18:59.186Z,99486.44
2023-01-20T18:21:29.962Z,99491.03
2023-01-20T18:23:58.485Z,99481.41
2023-01-20T18:26:27.396Z,99488.09
2023-01-20T18:28:56.213Z,99498.41
2023-01-20T18:31:25.273Z,99488.53
2023-01-20T18:33:56.695Z,99485.28
2023-01-20T18:36:25.480Z,99486.28
2023-01-20T18:38:56.237Z,99478.41
2023-01-20T18:41:24.570Z,99482.66
2023-01-20T18:43:52.493Z,99492.09
2023-01-20T18:46:21.025Z,99502.31
2023-01-20T18:48:49.265Z,99495.25
2023-01-20T18:51:20.747Z,99504.88
2023-01-20T18:53:54.018Z,99512.81
2023-01-20T18:56:24.653Z,99515.25
2023-01-20T18:58:54.029Z,99520.50
2023-01-20T19:01:23.372Z,99520.88
2023-01-20T19:03:52.414Z,99526.97
2023-01-20T19:06:21.322Z,99548.16
2023-01-20T19:08:49.522Z,99541.66
2023-01-20T19:11:19.010Z,99545.63
2023-01-20T19:13:49.004Z,99549.38
2023-01-20T19:16:17.785Z,99541.09
2023-01-20T19:18:46.501Z,99549.81
2023-01-20T19:21:22.881Z,99541.16
2023-01-20T19:23:51.644Z,99548.47
2023-01-20T19:26:20.558Z,99545.22
2023-01-20T19:28:56.336Z,99560.81
2023-01-20T19:31:24.622Z,99553.16
2023-01-20T19:33:53.111Z,99545.28
2023-01-20T19:36:21.374Z,99559.19
2023-01-20T19:38:49.636Z,99566.66
2023-01-20T19:41:18.690Z,99576.97
2023-01-20T19:43:46.875Z,99579.41
2023-01-20T19:46:17.918Z,99595.19
2023-01-20T19:48:46.179Z,99600.84
2023-01-20T19:51:15.579Z,99606.09
2023-01-20T19:53:44.258Z,99601.50
2023-01-20T19:56:12.901Z,99601.06
2023-01-20T19:58:41.932Z,99615.84
2023-01-20T20:01:13.096Z,99622.91
2023-01-20T20:03:42.905Z,99615.47
2023-01-20T20:06:23.318Z,99622.94
2023-01-20T20:08:51.728Z,99623.34
2023-01-20T20:11:19.718Z,99622.13
2023-01-20T20:13:47.715Z,99631.00
2023-01-20T20:16:16.175Z,99627.63
2023-01-20T20:18:49.372Z,99625.03
2023-01-20T20:21:17.397Z,99628.44
2023-01-20T20:23:45.540Z,99639.34
2023-01-20T20:26:13.502Z,99637.75
2023-01-20T20:28:41.620Z,99640.56
2023-01-20T20:31:09.990Z,99647.03
2023-01-20T20:33:38.055Z,99649.03
2023-01-20T20:36:11.452Z,99644.81
2023-01-20T20:38:39.419Z,99650.66
2023-01-20T20:41:08.286Z,99660.75
2023-01-20T20:43:36.594Z,99659.75
2023-01-20T20:46:05.818Z,99655.50
2023-01-20T20:48:34.692Z,99663.56
2023-01-20T20:51:06.530Z,99667.59
2023-01-20T20:53:36.061Z,99672.44
2023-01-20T20:56:07.974Z,99665.59
2023-01-20T20:58:36.146Z,99680.13
2023-01-20T21:01:07.824Z,99676.50
2023-01-20T21:03:36.772Z,99696.50
2023-01-20T21:06:05.095Z,99691.03
2023-01-20T21:08:33.265Z,99700.50
2023-01-20T21:11:02.789Z,99707.16
2023-01-20T21:13:31.304Z,99706.56
2023-01-20T21:16:01.252Z,99703.75
2023-01-20T21:18:29.670Z,99711.41
2023-01-20T21:20:58.355Z,99706.56
2023-01-20T21:23:26.594Z,99708.56
2023-01-20T21:25:54.592Z,99721.28
2023-01-20T21:28:24.751Z,99719.88
2023-01-20T21:30:52.771Z,99721.88
2023-01-20T21:33:20.810Z,99731.38
2023-01-20T21:35:48.784Z,99741.44
2023-01-20T21:38:16.855Z,99743.25
2023-01-20T21:41:00.044Z,99745.69
2023-01-20T21:43:48.711Z,99756.56
2023-01-20T21:46:16.708Z,99757.56
2023-01-20T21:49:02.137Z,99765.03
2023-01-20T21:54:28.396Z,99765.00
2023-01-20T21:56:56.575Z,99768.22
2023-01-20T21:59:26.272Z,99769.44
2023-01-20T22:01:54.322Z,99773.06
2023-01-20T22:04:22.250Z,99775.69
2023-01-20T22:06:50.456Z,99779.88
2023-01-20T22:09:18.448Z,99783.13
2023-01-20T22:11:46.460Z,99770.41
2023-01-20T22:14:14.432Z,99776.66
2023-01-20T22:16:44.342Z,99773.63
2023-01-20T22:19:12.995Z,99773.22
2023-01-20T22:21:40.955Z,99783.69
2023-01-20T22:24:09.404Z,99776.38
2023-01-20T22:26:37.491Z,99777.41
2023-01-20T22:29:05.580Z,99786.84
2023-01-20T22:34:16.478Z,99796.91
2023-01-20T22:36:45.166Z,99796.09
2023-01-20T22:39:13.146Z,99795.28
2023-01-20T22:41:41.255Z,99805.97
2023-01-20T22:44:09.631Z,99807.13
2023-01-20T22:46:39.990Z,99808.13
2023-01-20T22:49:08.050Z,99813.38
2023-01-20T22:51:37.429Z,99818.41
2023-01-20T22:54:07.343Z,99820.19
2023-01-20T22:56:35.511Z,99823.03
2023-01-20T22:59:03.534Z,99823.41
2023-01-20T23:01:32.589Z,99823.19
2023-01-20T23:04:02.135Z,99831.03
2023-01-20T23:06:30.890Z,99826.81
2023-01-20T23:09:00.635Z,99827.56
2023-01-20T23:11:28.719Z,99832.03
2023-01-20T23:13:56.809Z,99833.66
2023-01-20T23:16:24.838Z,99831.75
2023-01-20T23:18:53.274Z,99838.59
2023-01-20T23:21:21.805Z,99843.63
2023-01-20T23:23:54.401Z,99846.84
2023-01-20T23:26:24.985Z,99851.88
2023-01-20T23:28:54.083Z,99847.47
2023-01-20T23:31:22.723Z,99848.47
2023-01-20T23:33:51.150Z,99842.44
2023-01-20T23:36:20.257Z,99844.19
2023-01-20T23:38:48.585Z,99847.00
2023-01-20T23:41:17.255Z,99853.19
2023-01-20T23:43:46.558Z,99849.78
2023-01-20T23:46:14.576Z,99854.81
2023-01-20T23:48:42.581Z,99862.81
2023-01-20T23:51:11.487Z,99870.25
2023-01-20T23:53:40.504Z,99866.88
2023-01-20T23:56:11.185Z,99874.47
2023-01-20T23:58:39.538Z,99885.31
